sensor_id;sensor_type;location;lat;lon;timestamp;pressure;altitude;pressure_sealevel;temperature;humidity
55538;BME280;41383;51.418;7.286;2023-02-13T00:02:02;101965.47;;;8.78;81.34
55538;BME280;41383;51.418;7.286;2023-02-13T00:04:27;101955.44;;;8.79;80.99
55538;BME280;41383;51.418;7.286;2023-02-13T00:06:52;101958.78;;;8.81;81.01
55538;BME280;41383;51.418;7.286;2023-02-13T00:09:18;101955.03;;;8.82;81.02
55538;BME280;41383;51.418;7.286;2023-02-13T00:11:43;101958.41;;;8.84;80.97
55538;BME280;41383;51.418;7.286;2023-02-13T00:14:08;101952.72;;;8.79;81.11
55538;BME280;41383;51.418;7.286;2023-02-13T00:16:33;101939.94;;;8.79;81.09
55538;BME280;41383;51.418;7.286;2023-02-13T00:18:59;101946.25;;;8.80;81.07
55538;BME280;41383;51.418;7.286;2023-02-13T00:21:24;101939.91;;;8.72;81.34
55538;BME280;41383;51.418;7.286;2023-02-13T00:23:49;101948.16;;;8.86;81.08
55538;BME280;41383;51.418;7.286;2023-02-13T00:26:15;101940.16;;;8.78;80.76
55538;BME280;41383;51.418;7.286;2023-02-13T00:28:41;101948.72;;;8.74;81.26
55538;BME280;41383;51.418;7.286;2023-02-13T00:31:10;101945.16;;;8.74;81.81
55538;BME280;41383;51.418;7.286;2023-02-13T00:33:36;101938.31;;;8.85;81.02
55538;BME280;41383;51.418;7.286;2023-02-13T00:36:07;101939.31;;;8.77;81.19
55538;BME280;41383;51.418;7.286;2023-02-13T00:38:34;101937.59;;;8.69;81.12
55538;BME280;41383;51.418;7.286;2023-02-13T00:40:59;101934.22;;;8.67;81.27
55538;BME280;41383;51.418;7.286;2023-02-13T00:43:25;101933.44;;;8.73;80.85
55538;BME280;41383;51.418;7.286;2023-02-13T00:45:50;101934.00;;;8.62;81.25
55538;BME280;41383;51.418;7.286;2023-02-13T00:48:15;101931.75;;;8.72;81.06
55538;BME280;41383;51.418;7.286;2023-02-13T00:50:41;101928.44;;;8.77;80.52
55538;BME280;41383;51.418;7.286;2023-02-13T00:53:07;101931.91;;;8.64;80.84
55538;BME280;41383;51.418;7.286;2023-02-13T00:55:32;101931.00;;;8.57;81.00
55538;BME280;41383;51.418;7.286;2023-02-13T00:57:59;101940.44;;;8.61;81.13
55538;BME280;41383;51.418;7.286;2023-02-13T01:00:24;101934.00;;;8.62;81.42
55538;BME280;41383;51.418;7.286;2023-02-13T01:02:49;101934.63;;;8.64;81.31
55538;BME280;41383;51.418;7.286;2023-02-13T01:05:15;101931.13;;;8.70;81.08
55538;BME280;41383;51.418;7.286;2023-02-13T01:07:40;101927.75;;;8.68;80.47
55538;BME280;41383;51.418;7.286;2023-02-13T01:10:06;101938.63;;;8.68;80.54
55538;BME280;41383;51.418;7.286;2023-02-13T01:12:31;101936.31;;;8.65;80.86
55538;BME280;41383;51.418;7.286;2023-02-13T01:14:56;101943.03;;;8.69;80.81
55538;BME280;41383;51.418;7.286;2023-02-13T01:17:22;101941.75;;;8.65;80.28
55538;BME280;41383;51.418;7.286;2023-02-13T01:19:47;101930.28;;;8.70;80.51
55538;BME280;41383;51.418;7.286;2023-02-13T01:22:12;101928.47;;;8.55;80.54
55538;BME280;41383;51.418;7.286;2023-02-13T01:24:37;101931.13;;;8.48;80.68
55538;BME280;41383;51.418;7.286;2023-02-13T01:27:03;101936.81;;;8.53;80.72
55538;BME280;41383;51.418;7.286;2023-02-13T01:29:28;101935.13;;;8.52;79.91
55538;BME280;41383;51.418;7.286;2023-02-13T01:31:53;101938.81;;;8.38;80.97
55538;BME280;41383;51.418;7.286;2023-02-13T01:34:19;101937.97;;;8.37;81.11
55538;BME280;41383;51.418;7.286;2023-02-13T01:36:44;101936.72;;;8.40;81.00
55538;BME280;41383;51.418;7.286;2023-02-13T01:39:10;101936.88;;;8.32;80.94
55538;BME280;41383;51.418;7.286;2023-02-13T01:41:36;101935.53;;;8.49;81.05
55538;BME280;41383;51.418;7.286;2023-02-13T01:44:02;101932.72;;;8.36;80.97
55538;BME280;41383;51.418;7.286;2023-02-13T01:46:40;101936.31;;;8.43;80.56
55538;BME280;41383;51.418;7.286;2023-02-13T01:49:20;101938.00;;;8.44;80.96
55538;BME280;41383;51.418;7.286;2023-02-13T01:51:48;101926.53;;;8.49;80.76
55538;BME280;41383;51.418;7.286;2023-02-13T01:54:19;101929.81;;;8.37;80.44
55538;BME280;41383;51.418;7.286;2023-02-13T01:56:49;101931.81;;;8.28;80.97
55538;BME280;41383;51.418;7.286;2023-02-13T01:59:20;101933.03;;;8.26;81.25
55538;BME280;41383;51.418;7.286;2023-02-13T02:01:47;101935.09;;;8.24;80.96
55538;BME280;41383;51.418;7.286;2023-02-13T02:04:20;101928.19;;;8.21;81.49
55538;BME280;41383;51.418;7.286;2023-02-13T02:06:52;101931.66;;;8.37;80.86
55538;BME280;41383;51.418;7.286;2023-02-13T02:09:22;101929.94;;;8.29;80.95
55538;BME280;41383;51.418;7.286;2023-02-13T02:12:08;101929.88;;;8.22;81.19
55538;BME280;41383;51.418;7.286;2023-02-13T02:14:36;101924.44;;;8.22;81.19
55538;BME280;41383;51.418;7.286;2023-02-13T02:17:02;101921.47;;;8.17;81.13
55538;BME280;41383;51.418;7.286;2023-02-13T02:19:34;101915.63;;;8.20;81.10
55538;BME280;41383;51.418;7.286;2023-02-13T02:22:21;101915.00;;;8.18;81.22
55538;BME280;41383;51.418;7.286;2023-02-13T02:25:28;101919.84;;;8.23;81.29
55538;BME280;41383;51.418;7.286;2023-02-13T02:33:25;101918.22;;;8.28;80.80
55538;BME280;41383;51.418;7.286;2023-02-13T02:36:11;101919.44;;;8.26;80.58
55538;BME280;41383;51.418;7.286;2023-02-13T02:41:09;101916.56;;;8.27;80.32
55538;BME280;41383;51.418;7.286;2023-02-13T02:44:10;101916.03;;;8.17;81.02
55538;BME280;41383;51.418;7.286;2023-02-13T02:46:56;101921.59;;;8.31;80.80
55538;BME280;41383;51.418;7.286;2023-02-13T02:49:43;101921.06;;;8.20;80.55
55538;BME280;41383;51.418;7.286;2023-02-13T02:52:34;101913.06;;;8.12;80.76
55538;BME280;41383;51.418;7.286;2023-02-13T02:57:38;101910.09;;;8.06;80.83
55538;BME280;41383;51.418;7.286;2023-02-13T03:00:25;101912.50;;;7.94;81.50
55538;BME280;41383;51.418;7.286;2023-02-13T03:03:18;101913.78;;;7.99;81.62
55538;BME280;41383;51.418;7.286;2023-02-13T03:06:08;101909.47;;;7.82;81.82
55538;BME280;41383;51.418;7.286;2023-02-13T03:08:43;101909.50;;;7.89;82.14
55538;BME280;41383;51.418;7.286;2023-02-13T03:11:29;101909.34;;;7.91;80.87
55538;BME280;41383;51.418;7.286;2023-02-13T03:14:18;101909.72;;;7.88;81.38
55538;BME280;41383;51.418;7.286;2023-02-13T03:16:44;101909.34;;;7.91;81.35
55538;BME280;41383;51.418;7.286;2023-02-13T03:22:41;101913.59;;;7.78;81.63
55538;BME280;41383;51.418;7.286;2023-02-13T03:25:20;101911.19;;;7.90;81.52
55538;BME280;41383;51.418;7.286;2023-02-13T03:28:04;101907.06;;;7.94;80.97
55538;BME280;41383;51.418;7.286;2023-02-13T03:33:51;101912.16;;;8.04;80.59
55538;BME280;41383;51.418;7.286;2023-02-13T03:36:30;101916.75;;;8.04;80.35
55538;BME280;41383;51.418;7.286;2023-02-13T03:40:06;101916.75;;;8.04;80.41
55538;BME280;41383;51.418;7.286;2023-02-13T03:42:31;101916.09;;;8.02;80.44
55538;BME280;41383;51.418;7.286;2023-02-13T03:45:08;101918.63;;;8.03;80.33
55538;BME280;41383;51.418;7.286;2023-02-13T03:47:56;101918.13;;;8.15;79.92
55538;BME280;41383;51.418;7.286;2023-02-13T03:50:24;101914.00;;;8.26;79.76
55538;BME280;41383;51.418;7.286;2023-02-13T03:53:19;101922.13;;;8.19;79.76
55538;BME280;41383;51.418;7.286;2023-02-13T03:55:46;101922.50;;;8.16;79.81
55538;BME280;41383;51.418;7.286;2023-02-13T03:58:35;101923.91;;;8.12;79.83
55538;BME280;41383;51.418;7.286;2023-02-13T04:01:24;101915.91;;;8.03;79.68
55538;BME280;41383;51.418;7.286;2023-02-13T04:04:10;101926.41;;;8.06;80.51
55538;BME280;41383;51.418;7.286;2023-02-13T04:07:00;101928.97;;;8.15;79.99
55538;BME280;41383;51.418;7.286;2023-02-13T04:09:28;101928.88;;;8.01;80.08
55538;BME280;41383;51.418;7.286;2023-02-13T04:12:08;101930.47;;;7.96;80.78
55538;BME280;41383;51.418;7.286;2023-02-13T04:14:46;101925.22;;;7.94;80.86
55538;BME280;41383;51.418;7.286;2023-02-13T04:17:35;101928.41;;;7.98;80.75
55538;BME280;41383;51.418;7.286;2023-02-13T04:20:04;101926.59;;;7.83;81.12
55538;BME280;41383;51.418;7.286;2023-02-13T04:22:30;101928.88;;;8.01;80.98
55538;BME280;41383;51.418;7.286;2023-02-13T04:24:55;101923.16;;;7.96;80.52
55538;BME280;41383;51.418;7.286;2023-02-13T04:27:23;101915.25;;;7.79;81.71
55538;BME280;41383;51.418;7.286;2023-02-13T04:29:49;101918.25;;;7.85;81.77
55538;BME280;41383;51.418;7.286;2023-02-13T04:32:14;101915.78;;;7.90;81.13
55538;BME280;41383;51.418;7.286;2023-02-13T04:34:41;101920.56;;;7.88;81.99
55538;BME280;41383;51.418;7.286;2023-02-13T04:37:06;101922.50;;;7.94;80.91
55538;BME280;41383;51.418;7.286;2023-02-13T04:39:32;101922.78;;;7.99;81.07
55538;BME280;41383;51.418;7.286;2023-02-13T04:41:57;101916.72;;;7.97;81.12
55538;BME280;41383;51.418;7.286;2023-02-13T04:44:22;101913.34;;;7.95;81.23
55538;BME280;41383;51.418;7.286;2023-02-13T04:46:47;101912.94;;;7.98;81.13
55538;BME280;41383;51.418;7.286;2023-02-13T04:49:13;101918.81;;;8.02;80.59
55538;BME280;41383;51.418;7.286;2023-02-13T04:51:38;101909.66;;;8.03;80.88
55538;BME280;41383;51.418;7.286;2023-02-13T04:54:03;101913.38;;;8.02;81.15
55538;BME280;41383;51.418;7.286;2023-02-13T04:56:29;101907.13;;;8.01;80.63
55538;BME280;41383;51.418;7.286;2023-02-13T04:58:54;101903.13;;;7.97;81.04
55538;BME280;41383;51.418;7.286;2023-02-13T05:01:20;101908.34;;;7.99;81.20
55538;BME280;41383;51.418;7.286;2023-02-13T05:03:46;101904.72;;;8.13;80.86
55538;BME280;41383;51.418;7.286;2023-02-13T05:06:11;101901.16;;;8.13;80.46
55538;BME280;41383;51.418;7.286;2023-02-13T05:08:36;101908.03;;;8.09;80.88
55538;BME280;41383;51.418;7.286;2023-02-13T05:11:02;101903.25;;;8.11;80.62
55538;BME280;41383;51.418;7.286;2023-02-13T05:13:27;101895.44;;;8.01;80.50
55538;BME280;41383;51.418;7.286;2023-02-13T05:15:52;101912.50;;;7.94;81.21
55538;BME280;41383;51.418;7.286;2023-02-13T05:18:18;101903.63;;;7.86;81.64
55538;BME280;41383;51.418;7.286;2023-02-13T05:20:44;101911.66;;;7.94;81.44
55538;BME280;41383;51.418;7.286;2023-02-13T05:23:13;101907.13;;;8.01;80.91
55538;BME280;41383;51.418;7.286;2023-02-13T05:25:48;101898.63;;;7.89;81.44
55538;BME280;41383;51.418;7.286;2023-02-13T05:28:13;101899.13;;;7.93;81.32
55538;BME280;41383;51.418;7.286;2023-02-13T05:31:04;101899.34;;;7.98;81.25
55538;BME280;41383;51.418;7.286;2023-02-13T05:33:30;101903.38;;;8.02;81.12
55538;BME280;41383;51.418;7.286;2023-02-13T05:35:55;101894.69;;;7.92;81.35
55538;BME280;41383;51.418;7.286;2023-02-13T05:38:20;101898.59;;;7.82;81.42
55538;BME280;41383;51.418;7.286;2023-02-13T05:40:45;101896.13;;;7.88;81.60
55538;BME280;41383;51.418;7.286;2023-02-13T05:43:11;101899.25;;;7.85;81.90
55538;BME280;41383;51.418;7.286;2023-02-13T05:45:36;101899.34;;;7.98;81.09
55538;BME280;41383;51.418;7.286;2023-02-13T05:48:01;101895.75;;;7.91;81.26
55538;BME280;41383;51.418;7.286;2023-02-13T05:50:26;101891.09;;;7.85;80.98
55538;BME280;41383;51.418;7.286;2023-02-13T05:52:52;101891.91;;;7.85;81.29
55538;BME280;41383;51.418;7.286;2023-02-13T05:55:17;101891.47;;;7.81;81.16
55538;BME280;41383;51.418;7.286;2023-02-13T05:57:42;101893.53;;;7.79;81.46
55538;BME280;41383;51.418;7.286;2023-02-13T06:00:08;101899.38;;;7.76;81.26
55538;BME280;41383;51.418;7.286;2023-02-13T06:02:33;101898.31;;;7.77;80.92
55538;BME280;41383;51.418;7.286;2023-02-13T06:04:58;101898.97;;;7.79;81.07
55538;BME280;41383;51.418;7.286;2023-02-13T06:07:24;101895.03;;;7.82;80.99
55538;BME280;41383;51.418;7.286;2023-02-13T06:09:49;101891.53;;;7.88;81.11
55538;BME280;41383;51.418;7.286;2023-02-13T06:12:14;101903.44;;;7.87;80.62
55538;BME280;41383;51.418;7.286;2023-02-13T06:14:39;101893.81;;;7.85;80.22
55538;BME280;41383;51.418;7.286;2023-02-13T06:17:05;101893.09;;;7.76;79.76
55538;BME280;41383;51.418;7.286;2023-02-13T06:19:30;101899.03;;;7.64;80.13
55538;BME280;41383;51.418;7.286;2023-02-13T06:21:55;101888.44;;;7.69;80.30
55538;BME280;41383;51.418;7.286;2023-02-13T06:24:21;101898.97;;;7.79;80.14
55538;BME280;41383;51.418;7.286;2023-02-13T06:26:46;101893.84;;;7.69;80.51
55538;BME280;41383;51.418;7.286;2023-02-13T06:29:11;101897.31;;;7.78;80.61
55538;BME280;41383;51.418;7.286;2023-02-13T06:31:37;101891.03;;;7.78;80.24
55538;BME280;41383;51.418;7.286;2023-02-13T06:34:02;101892.72;;;7.79;79.74
55538;BME280;41383;51.418;7.286;2023-02-13T06:36:27;101888.06;;;7.73;79.28
55538;BME280;41383;51.418;7.286;2023-02-13T06:38:52;101895.88;;;7.61;79.97
55538;BME280;41383;51.418;7.286;2023-02-13T06:41:18;101890.50;;;7.67;80.25
55538;BME280;41383;51.418;7.286;2023-02-13T06:43:43;101890.94;;;7.71;79.73
55538;BME280;41383;51.418;7.286;2023-02-13T06:46:08;101892.56;;;7.65;79.67
55538;BME280;41383;51.418;7.286;2023-02-13T06:48:34;101892.88;;;7.55;80.08
55538;BME280;41383;51.418;7.286;2023-02-13T06:50:59;101898.72;;;7.52;79.64
55538;BME280;41383;51.418;7.286;2023-02-13T06:53:26;101893.53;;;7.57;79.92
55538;BME280;41383;51.418;7.286;2023-02-13T06:55:52;101884.47;;;7.50;79.91
55538;BME280;41383;51.418;7.286;2023-02-13T06:58:18;101887.09;;;7.43;80.36
55538;BME280;41383;51.418;7.286;2023-02-13T07:00:44;101887.69;;;7.39;80.58
55538;BME280;41383;51.418;7.286;2023-02-13T07:03:09;101901.53;;;7.44;79.97
55538;BME280;41383;51.418;7.286;2023-02-13T07:05:34;101891.44;;;7.38;80.31
55538;BME280;41383;51.418;7.286;2023-02-13T07:08:00;101894.47;;;7.28;80.37
55538;BME280;41383;51.418;7.286;2023-02-13T07:10:25;101893.34;;;7.22;81.17
55538;BME280;41383;51.418;7.286;2023-02-13T07:12:51;101904.72;;;7.32;80.91
55538;BME280;41383;51.418;7.286;2023-02-13T07:15:16;101905.66;;;7.40;80.90
55538;BME280;41383;51.418;7.286;2023-02-13T07:17:41;101901.53;;;7.44;80.45
55538;BME280;41383;51.418;7.286;2023-02-13T07:20:07;101899.84;;;7.43;80.31
55538;BME280;41383;51.418;7.286;2023-02-13T07:22:33;101907.09;;;7.57;79.89
55538;BME280;41383;51.418;7.286;2023-02-13T07:24:59;101900.66;;;7.58;79.77
55538;BME280;41383;51.418;7.286;2023-02-13T07:27:25;101912.06;;;7.54;80.00
55538;BME280;41383;51.418;7.286;2023-02-13T07:29:53;101905.44;;;7.56;79.50
55538;BME280;41383;51.418;7.286;2023-02-13T07:32:18;101900.22;;;7.40;79.36
55538;BME280;41383;51.418;7.286;2023-02-13T07:34:43;101908.91;;;7.50;79.91
55538;BME280;41383;51.418;7.286;2023-02-13T07:37:08;101904.59;;;7.56;80.12
55538;BME280;41383;51.418;7.286;2023-02-13T07:39:35;101904.13;;;7.52;80.19
55538;BME280;41383;51.418;7.286;2023-02-13T07:42:03;101907.09;;;7.57;79.62
55538;BME280;41383;51.418;7.286;2023-02-13T07:44:29;101906.78;;;7.67;79.62
55538;BME280;41383;51.418;7.286;2023-02-13T07:46:54;101914.47;;;7.64;79.65
55538;BME280;41383;51.418;7.286;2023-02-13T07:49:19;101905.03;;;7.81;79.35
55538;BME280;41383;51.418;7.286;2023-02-13T07:51:44;101909.31;;;7.69;78.95
55538;BME280;41383;51.418;7.286;2023-02-13T07:54:10;101907.22;;;7.71;79.65
55538;BME280;41383;51.418;7.286;2023-02-13T07:56:35;101913.44;;;7.65;79.45
55538;BME280;41383;51.418;7.286;2023-02-13T07:59:00;101920.56;;;7.66;79.50
55538;BME280;41383;51.418;7.286;2023-02-13T08:01:25;101927.22;;;7.85;79.40
55538;BME280;41383;51.418;7.286;2023-02-13T08:03:51;101931.19;;;7.82;79.35
55538;BME280;41383;51.418;7.286;2023-02-13T08:06:17;101931.38;;;7.81;79.20
55538;BME280;41383;51.418;7.286;2023-02-13T08:08:43;101935.25;;;7.93;79.21
55538;BME280;41383;51.418;7.286;2023-02-13T08:11:32;101939.97;;;8.06;78.44
55538;BME280;41383;51.418;7.286;2023-02-13T08:14:16;101941.41;;;8.02;78.36
55538;BME280;41383;51.418;7.286;2023-02-13T08:16:41;101933.47;;;8.01;78.79
55538;BME280;41383;51.418;7.286;2023-02-13T08:19:06;101931.31;;;7.96;78.96
55538;BME280;41383;51.418;7.286;2023-02-13T08:21:32;101931.50;;;7.94;78.51
55538;BME280;41383;51.418;7.286;2023-02-13T08:23:59;101936.38;;;7.99;78.77
55538;BME280;41383;51.418;7.286;2023-02-13T08:26:24;101934.31;;;8.01;78.81
55538;BME280;41383;51.418;7.286;2023-02-13T08:28:50;101935.31;;;8.00;78.70
55538;BME280;41383;51.418;7.286;2023-02-13T08:31:15;101941.16;;;7.97;79.10
55538;BME280;41383;51.418;7.286;2023-02-13T08:33:40;101933.47;;;8.01;78.88
55538;BME280;41383;51.418;7.286;2023-02-13T08:36:06;101938.56;;;8.11;78.81
55538;BME280;41383;51.418;7.286;2023-02-13T08:38:31;101934.16;;;8.10;78.48
55538;BME280;41383;51.418;7.286;2023-02-13T08:40:57;101931.84;;;8.06;78.22
55538;BME280;41383;51.418;7.286;2023-02-13T08:43:22;101934.78;;;8.12;78.95
55538;BME280;41383;51.418;7.286;2023-02-13T08:45:48;101931.94;;;8.20;78.75
55538;BME280;41383;51.418;7.286;2023-02-13T08:48:13;101925.22;;;8.16;78.91
55538;BME280;41383;51.418;7.286;2023-02-13T08:50:39;101922.78;;;8.21;78.70
55538;BME280;41383;51.418;7.286;2023-02-13T08:53:04;101926.16;;;8.30;78.22
55538;BME280;41383;51.418;7.286;2023-02-13T08:55:30;101926.63;;;8.34;78.19
55538;BME280;41383;51.418;7.286;2023-02-13T08:57:59;101929.28;;;8.27;78.51
55538;BME280;41383;51.418;7.286;2023-02-13T09:00:24;101931.44;;;8.32;78.35
55538;BME280;41383;51.418;7.286;2023-02-13T09:02:49;101925.53;;;8.28;78.36
55538;BME280;41383;51.418;7.286;2023-02-13T09:05:15;101926.63;;;8.34;78.19
55538;BME280;41383;51.418;7.286;2023-02-13T09:07:40;101929.19;;;8.42;78.14
55538;BME280;41383;51.418;7.286;2023-02-13T09:10:06;101931.91;;;8.42;78.13
55538;BME280;41383;51.418;7.286;2023-02-13T09:12:31;101923.16;;;8.47;77.72
55538;BME280;41383;51.418;7.286;2023-02-13T09:14:56;101922.94;;;8.41;78.03
55538;BME280;41383;51.418;7.286;2023-02-13T09:17:22;101916.50;;;8.49;77.96
55538;BME280;41383;51.418;7.286;2023-02-13T09:19:47;101930.19;;;8.34;77.78
55538;BME280;41383;51.418;7.286;2023-02-13T09:22:12;101929.16;;;8.35;77.90
55538;BME280;41383;51.418;7.286;2023-02-13T09:24:39;101929.56;;;8.61;77.84
55538;BME280;41383;51.418;7.286;2023-02-13T09:27:04;101926.84;;;8.61;77.12
55538;BME280;41383;51.418;7.286;2023-02-13T09:29:29;101924.53;;;8.58;76.76
55538;BME280;41383;51.418;7.286;2023-02-13T09:31:57;101921.03;;;8.64;76.71
55538;BME280;41383;51.418;7.286;2023-02-13T09:34:23;101928.00;;;8.73;76.77
55538;BME280;41383;51.418;7.286;2023-02-13T09:36:52;101925.75;;;8.84;76.33
55538;BME280;41383;51.418;7.286;2023-02-13T09:39:18;101920.31;;;8.84;76.28
55538;BME280;41383;51.418;7.286;2023-02-13T09:41:44;101917.53;;;8.77;77.18
55538;BME280;41383;51.418;7.286;2023-02-13T09:47:03;101919.94;;;8.94;76.72
55538;BME280;41383;51.418;7.286;2023-02-13T09:49:32;101923.09;;;8.97;76.55
55538;BME280;41383;51.418;7.286;2023-02-13T09:51:59;101918.13;;;9.08;75.98
55538;BME280;41383;51.418;7.286;2023-02-13T09:54:26;101923.84;;;9.13;76.01
55538;BME280;41383;51.418;7.286;2023-02-13T09:57:09;101923.84;;;9.13;75.91
55538;BME280;41383;51.418;7.286;2023-02-13T09:59:57;101920.25;;;9.13;76.21
55538;BME280;41383;51.418;7.286;2023-02-13T10:11:07;101927.00;;;9.23;75.99
55538;BME280;41383;51.418;7.286;2023-02-13T10:13:46;101927.63;;;9.26;75.90
55538;BME280;41383;51.418;7.286;2023-02-13T10:16:20;101935.41;;;9.29;75.61
55538;BME280;41383;51.418;7.286;2023-02-13T10:18:52;101930.81;;;9.29;76.15
55538;BME280;41383;51.418;7.286;2023-02-13T10:21:22;101931.63;;;9.30;75.15
55538;BME280;41383;51.418;7.286;2023-02-13T10:24:13;101934.38;;;9.37;75.39
55538;BME280;41383;51.418;7.286;2023-02-13T10:26:43;101937.31;;;9.42;75.13
55538;BME280;41383;51.418;7.286;2023-02-13T10:29:16;101930.25;;;9.48;75.30
55538;BME280;41383;51.418;7.286;2023-02-13T10:32:07;101932.97;;;9.48;75.14
55538;BME280;41383;51.418;7.286;2023-02-13T10:34:41;101932.78;;;9.56;75.07
55538;BME280;41383;51.418;7.286;2023-02-13T10:37:20;101934.03;;;9.60;74.42
55538;BME280;41383;51.418;7.286;2023-02-13T10:39:48;101929.00;;;9.57;74.99
55538;BME280;41383;51.418;7.286;2023-02-13T10:42:41;101928.19;;;9.63;74.99
55538;BME280;41383;51.418;7.286;2023-02-13T10:45:20;101929.84;;;9.64;74.59
55538;BME280;41383;51.418;7.286;2023-02-13T10:48:03;101924.47;;;9.78;74.21
55538;BME280;41383;51.418;7.286;2023-02-13T10:50:52;101924.28;;;9.86;73.48
55538;BME280;41383;51.418;7.286;2023-02-13T11:02:21;101909.41;;;9.96;73.45
55538;BME280;41383;51.418;7.286;2023-02-13T11:04:48;101912.31;;;10.01;73.48
55538;BME280;41383;51.418;7.286;2023-02-13T11:07:17;101904.16;;;10.08;73.25
55538;BME280;41383;51.418;7.286;2023-02-13T11:09:46;101900.59;;;10.07;74.03
55538;BME280;41383;51.418;7.286;2023-02-13T11:12:27;101895.13;;;10.07;74.19
55538;BME280;41383;51.418;7.286;2023-02-13T11:14:58;101896.00;;;10.14;74.04
55538;BME280;41383;51.418;7.286;2023-02-13T11:17:26;101886.34;;;10.19;73.88
55538;BME280;41383;51.418;7.286;2023-02-13T11:19:57;101884.88;;;10.23;73.39
55538;BME280;41383;51.418;7.286;2023-02-13T11:22:28;101882.97;;;10.30;73.18
55538;BME280;41383;51.418;7.286;2023-02-13T11:24:56;101876.69;;;10.36;72.28
55538;BME280;41383;51.418;7.286;2023-02-13T11:27:31;101874.59;;;10.38;73.08
55538;BME280;41383;51.418;7.286;2023-02-13T11:30:03;101877.09;;;10.47;73.05
55538;BME280;41383;51.418;7.286;2023-02-13T11:32:30;101880.03;;;10.52;72.81
55538;BME280;41383;51.418;7.286;2023-02-13T11:34:56;101869.97;;;10.59;73.21
55538;BME280;41383;51.418;7.286;2023-02-13T11:37:29;101872.28;;;10.56;73.33
55538;BME280;41383;51.418;7.286;2023-02-13T11:39:58;101874.59;;;10.66;71.69
55538;BME280;41383;51.418;7.286;2023-02-13T11:42:33;101862.38;;;10.68;71.46
55538;BME280;41383;51.418;7.286;2023-02-13T11:45:04;101861.94;;;10.78;71.30
55538;BME280;41383;51.418;7.286;2023-02-13T11:47:48;101871.19;;;10.77;70.73
55538;BME280;41383;51.418;7.286;2023-02-13T11:50:32;101864.81;;;10.97;70.06
55538;BME280;41383;51.418;7.286;2023-02-13T11:53:05;101856.22;;;11.00;69.78
55538;BME280;41383;51.418;7.286;2023-02-13T11:55:36;101858.56;;;10.90;70.92
55538;BME280;41383;51.418;7.286;2023-02-13T11:58:21;101860.69;;;10.74;71.77
55538;BME280;41383;51.418;7.286;2023-02-13T12:00:47;101858.22;;;10.66;72.68
55538;BME280;41383;51.418;7.286;2023-02-13T12:03:25;101847.72;;;10.62;72.67
55538;BME280;41383;51.418;7.286;2023-02-13T12:08:36;101846.91;;;10.55;72.69
55538;BME280;41383;51.418;7.286;2023-02-13T12:11:14;101838.84;;;10.74;72.37
55538;BME280;41383;51.418;7.286;2023-02-13T12:13:44;101836.72;;;10.90;71.88
55538;BME280;41383;51.418;7.286;2023-02-13T12:18:44;101836.44;;;11.05;71.92
55538;BME280;41383;51.418;7.286;2023-02-13T12:24:56;101831.00;;;11.37;69.63
55538;BME280;41383;51.418;7.286;2023-02-13T12:27:29;101834.78;;;11.43;67.85
55538;BME280;41383;51.418;7.286;2023-02-13T12:33:01;101814.28;;;11.59;66.64
55538;BME280;41383;51.418;7.286;2023-02-13T12:36:06;101808.53;;;11.67;67.27
55538;BME280;41383;51.418;7.286;2023-02-13T12:41:14;101801.41;;;11.66;68.16
55538;BME280;41383;51.418;7.286;2023-02-13T12:44:11;101797.13;;;11.77;67.63
55538;BME280;41383;51.418;7.286;2023-02-13T12:58:04;101778.97;;;12.09;66.82
55538;BME280;41383;51.418;7.286;2023-02-13T13:01:30;101773.69;;;12.14;66.07
55538;BME280;41383;51.418;7.286;2023-02-13T13:03:36;101764.59;;;12.20;66.58
55538;BME280;41383;51.418;7.286;2023-02-13T13:09:01;101768.75;;;12.23;64.94
55538;BME280;41383;51.418;7.286;2023-02-13T13:14:47;101772.03;;;12.32;64.48
55538;BME280;41383;51.418;7.286;2023-02-13T13:17:21;101771.97;;;12.39;63.70
55538;BME280;41383;51.418;7.286;2023-02-13T13:22:41;101772.16;;;12.37;65.92
55538;BME280;41383;51.418;7.286;2023-02-13T13:25:32;101766.25;;;12.40;65.29
55538;BME280;41383;51.418;7.286;2023-02-13T13:28:09;101757.44;;;12.38;64.49
55538;BME280;41383;51.418;7.286;2023-02-13T13:30:36;101755.69;;;12.44;65.49
55538;BME280;41383;51.418;7.286;2023-02-13T13:33:20;101758.19;;;12.45;65.33
55538;BME280;41383;51.418;7.286;2023-02-13T13:41:21;101748.19;;;11.95;67.03
55538;BME280;41383;51.418;7.286;2023-02-13T13:51:36;101745.53;;;11.62;68.83
55538;BME280;41383;51.418;7.286;2023-02-13T14:07:22;101745.19;;;11.52;69.20
55538;BME280;41383;51.418;7.286;2023-02-13T14:09:48;101740.13;;;11.55;69.32
55538;BME280;41383;51.418;7.286;2023-02-13T14:14:48;101729.81;;;11.58;69.61
55538;BME280;41383;51.418;7.286;2023-02-13T14:17:14;101726.88;;;11.59;69.61
55538;BME280;41383;51.418;7.286;2023-02-13T14:19:50;101732.16;;;11.79;68.11
55538;BME280;41383;51.418;7.286;2023-02-13T14:24:56;101731.97;;;11.74;67.80
55538;BME280;41383;51.418;7.286;2023-02-13T14:27:24;101721.94;;;11.68;68.89
55538;BME280;41383;51.418;7.286;2023-02-13T14:29:51;101726.19;;;11.64;69.27
55538;BME280;41383;51.418;7.286;2023-02-13T14:35:00;101728.88;;;11.45;70.36
55538;BME280;41383;51.418;7.286;2023-02-13T14:37:36;101730.38;;;11.41;70.38
55538;BME280;41383;51.418;7.286;2023-02-13T14:42:45;101726.59;;;11.42;70.51
55538;BME280;41383;51.418;7.286;2023-02-13T14:45:16;101728.47;;;11.41;70.94
55538;BME280;41383;51.418;7.286;2023-02-13T14:47:48;101727.25;;;11.37;71.06
55538;BME280;41383;51.418;7.286;2023-02-13T14:50:23;101717.78;;;11.40;70.86
55538;BME280;41383;51.418;7.286;2023-02-13T14:52:53;101720.97;;;11.37;71.05
55538;BME280;41383;51.418;7.286;2023-02-13T14:55:35;101721.78;;;11.37;71.55
55538;BME280;41383;51.418;7.286;2023-02-13T14:58:15;101717.63;;;11.35;71.16
55538;BME280;41383;51.418;7.286;2023-02-13T15:03:30;101724.78;;;11.29;71.95
55538;BME280;41383;51.418;7.286;2023-02-13T15:06:02;101719.53;;;11.27;71.90
55538;BME280;41383;51.418;7.286;2023-02-13T15:08:33;101717.66;;;11.28;72.16